createdAt,value
2019-03-08T00:00:40.191Z,9.10
2019-03-08T00:03:07.756Z,9.10
2019-03-08T00:05:35.633Z,9.10
2019-03-08T00:08:03.250Z,8.90
2019-03-08T00:10:31.226Z,8.90
2019-03-08T00:12:59.075Z,9.00
2019-03-08T00:15:26.698Z,9.10
2019-03-08T00:17:54.827Z,8.90
2019-03-08T00:20:22.779Z,9.30
2019-03-08T00:22:50.342Z,9.20
2019-03-08T00:25:17.933Z,9.20
2019-03-08T00:27:45.912Z,8.90
2019-03-08T00:30:14.284Z,8.90
2019-03-08T00:32:42.660Z,8.90
2019-03-08T00:35:10.640Z,8.60
2019-03-08T00:37:38.803Z,8.90
2019-03-08T00:40:07.079Z,9.20
2019-03-08T00:42:34.722Z,9.20
2019-03-08T00:45:02.371Z,9.30
2019-03-08T00:47:30.018Z,9.20
2019-03-08T00:49:57.574Z,9.30
2019-03-08T00:52:25.659Z,9.10
2019-03-08T00:54:53.586Z,9.10
2019-03-08T00:57:21.529Z,9.20
2019-03-08T00:59:49.746Z,9.60
2019-03-08T01:02:17.698Z,9.50
2019-03-08T01:04:45.787Z,9.50
2019-03-08T01:07:13.550Z,9.50
2019-03-08T01:09:41.434Z,9.70
2019-03-08T01:12:09.378Z,9.60
2019-03-08T01:14:37.382Z,9.50
2019-03-08T01:17:05.002Z,10.00
2019-03-08T01:19:32.572Z,9.70
2019-03-08T01:22:00.687Z,10.00
2019-03-08T01:24:28.419Z,10.10
2019-03-08T01:26:56.698Z,9.70
2019-03-08T01:29:25.260Z,9.90
2019-03-08T01:31:53.509Z,9.90
2019-03-08T01:34:21.106Z,9.80
2019-03-08T01:36:49.059Z,9.80
2019-03-08T01:39:17.248Z,9.90
2019-03-08T01:41:44.869Z,9.80
2019-03-08T01:44:12.718Z,9.80
2019-03-08T01:46:40.646Z,10.00
2019-03-08T01:49:08.220Z,9.90
2019-03-08T01:51:36.056Z,9.80
2019-03-08T01:54:05.062Z,9.60
2019-03-08T01:56:33.015Z,9.90
2019-03-08T01:59:00.602Z,9.50
2019-03-08T02:01:28.295Z,9.80
2019-03-08T02:03:58.034Z,9.70
2019-03-08T02:06:25.854Z,9.70
2019-03-08T02:08:53.483Z,9.60
2019-03-08T02:11:21.387Z,9.70
2019-03-08T02:13:49.259Z,9.60
2019-03-08T02:16:16.863Z,9.50
2019-03-08T02:18:45.006Z,9.40
2019-03-08T02:21:12.834Z,9.40
2019-03-08T02:23:40.422Z,9.60
2019-03-08T02:26:08.371Z,9.40
2019-03-08T02:28:36.842Z,9.50
2019-03-08T02:31:04.857Z,9.40
2019-03-08T02:33:32.779Z,9.40
2019-03-08T02:36:00.351Z,9.40
2019-03-08T04:51:16.608Z,8.50
2019-03-08T04:53:44.195Z,8.50
2019-03-08T04:56:12.121Z,8.30
2019-03-08T04:58:40.327Z,8.40
2019-03-08T05:01:08.974Z,8.50
2019-03-08T05:03:37.163Z,8.70
2019-03-08T05:06:04.798Z,8.50
2019-03-08T05:08:32.679Z,8.50
2019-03-08T05:11:00.890Z,8.50
2019-03-08T05:13:29.115Z,8.60
2019-03-08T05:15:57.291Z,8.50
2019-03-08T05:18:24.906Z,8.60
2019-03-08T05:20:53.181Z,8.70
2019-03-08T05:23:21.107Z,8.40
2019-03-08T05:25:48.706Z,8.50
2019-03-08T05:28:16.354Z,8.30
2019-03-08T05:30:43.924Z,8.40
2019-03-08T05:33:11.969Z,8.60
2019-03-08T05:35:39.871Z,8.60
2019-03-08T05:38:09.477Z,8.60
2019-03-08T05:40:37.352Z,8.40
2019-03-08T05:43:05.319Z,8.60
2019-03-08T05:45:33.191Z,8.50
2019-03-08T05:48:01.117Z,8.60
2019-03-08T05:50:28.696Z,8.70
2019-03-08T05:52:56.978Z,8.40
2019-03-08T05:55:25.231Z,8.50
2019-03-08T05:57:53.211Z,8.80
2019-03-08T06:00:28.739Z,8.50
2019-03-08T06:02:51.015Z,8.60
2019-03-08T06:05:19.233Z,8.50
2019-03-08T06:07:46.808Z,8.50
2019-03-08T06:10:30.361Z,8.60
2019-03-08T06:12:58.159Z,8.70
2019-03-08T06:15:26.053Z,8.60
2019-03-08T06:17:56.359Z,8.40
2019-03-08T06:20:24.306Z,8.70
2019-03-08T06:22:52.198Z,8.50
2019-03-08T06:25:19.832Z,8.50
2019-03-08T06:27:47.451Z,8.70
2019-03-08T06:30:15.330Z,8.60
2019-03-08T06:32:42.980Z,8.50
2019-03-08T06:35:10.907Z,8.80
2019-03-08T06:37:38.900Z,8.50
2019-03-08T06:40:06.667Z,8.70
2019-03-08T06:42:34.584Z,8.60
2019-03-08T06:45:02.250Z,8.60
2019-03-08T06:47:30.257Z,8.80
2019-03-08T06:49:57.894Z,9.00
2019-03-08T06:52:28.333Z,8.80
2019-03-08T06:54:56.195Z,9.10
2019-03-08T06:57:24.749Z,9.00
2019-03-08T07:00:12.267Z,9.00
2019-03-08T07:02:40.465Z,8.80
2019-03-08T07:05:08.378Z,8.90
2019-03-08T07:07:36.307Z,9.00
2019-03-08T07:10:05.893Z,8.80
2019-03-08T07:12:34.420Z,8.90
2019-03-08T07:15:02.672Z,8.80
2019-03-08T07:17:30.506Z,9.20
2019-03-08T07:20:14.196Z,9.00
2019-03-08T07:23:04.014Z,8.90
2019-03-08T07:26:00.286Z,9.20
2019-03-08T07:28:43.244Z,9.30
2019-03-08T07:31:35.254Z,9.00
2019-03-08T07:34:11.335Z,9.50
2019-03-08T07:36:53.114Z,9.50
2019-03-08T07:39:38.639Z,9.60
2019-03-08T07:42:17.722Z,10.00
2019-03-08T07:45:01.719Z,9.50
2019-03-08T07:47:47.014Z,9.60
2019-03-08T07:50:34.161Z,9.80
2019-03-08T07:53:20.161Z,10.10
2019-03-08T07:55:54.304Z,11.10
2019-03-08T07:58:30.235Z,12.80
2019-03-08T08:01:28.700Z,15.30
2019-03-08T08:04:08.578Z,14.70
2019-03-08T08:07:13.588Z,13.40
2019-03-08T08:09:59.223Z,12.50
2019-03-08T08:12:56.446Z,12.00
2019-03-08T08:15:42.866Z,12.50
2019-03-08T08:18:37.355Z,12.10
2019-03-08T08:21:25.550Z,11.40
2019-03-08T08:24:27.753Z,11.50
2019-03-08T08:27:13.449Z,11.10
2019-03-08T08:30:15.658Z,10.50
2019-03-08T08:33:02.806Z,10.60
2019-03-08T08:35:54.377Z,10.50
2019-03-08T08:38:33.065Z,10.40
2019-03-08T08:41:35.087Z,10.40
2019-03-08T08:44:21.159Z,10.60
2019-03-08T08:46:59.475Z,10.40
2019-03-08T08:49:54.281Z,10.30
2019-03-08T08:52:39.458Z,10.40
2019-03-08T08:55:33.482Z,10.50
2019-03-08T08:58:28.910Z,10.50
2019-03-08T09:01:10.075Z,10.70
2019-03-08T09:04:00.356Z,11.00
2019-03-08T09:06:36.499Z,11.10
2019-03-08T09:09:26.690Z,11.30
2019-03-08T09:12:21.135Z,11.50
2019-03-08T09:14:54.468Z,12.20
2019-03-08T09:17:39.950Z,11.90
2019-03-08T09:20:35.230Z,12.10
2019-03-08T09:23:16.778Z,11.40
2019-03-08T09:25:56.334Z,11.10
2019-03-08T09:28:55.508Z,11.00
2019-03-08T09:31:32.933Z,11.00
2019-03-08T09:34:09.756Z,11.00
2019-03-08T09:36:55.110Z,11.00
2019-03-08T09:39:39.102Z,11.10
2019-03-08T09:42:32.724Z,11.30
2019-03-08T09:45:11.451Z,11.10
2019-03-08T09:47:58.519Z,10.90
2019-03-08T09:50:35.362Z,11.20
2019-03-08T09:53:12.036Z,11.10
2019-03-08T09:55:48.386Z,11.10
2019-03-08T09:58:38.162Z,10.90
2019-03-08T10:01:18.654Z,10.90
2019-03-08T10:04:10.867Z,10.90
2019-03-08T10:06:56.910Z,10.90
2019-03-08T10:09:43.127Z,10.90
2019-03-08T10:12:29.342Z,10.70
2019-03-08T10:15:25.852Z,10.70
2019-03-08T10:18:18.483Z,10.50
2019-03-08T10:21:06.171Z,10.70
2019-03-08T10:24:08.096Z,10.50
2019-03-08T10:26:57.193Z,10.80
2019-03-08T10:29:29.294Z,10.40
2019-03-08T10:32:13.408Z,10.40
2019-03-08T10:34:53.137Z,10.60
2019-03-08T10:37:46.256Z,10.30
2019-03-08T10:40:39.274Z,10.50
2019-03-08T10:43:20.802Z,10.50
2019-03-08T10:46:01.223Z,10.70
2019-03-08T10:48:54.414Z,10.80
2019-03-08T10:51:32.686Z,10.60
2019-03-08T10:54:24.707Z,10.50
2019-03-08T10:57:17.933Z,10.10
2019-03-08T11:00:11.030Z,10.50
2019-03-08T11:03:00.058Z,10.70
2019-03-08T11:05:51.083Z,10.50
2019-03-08T11:08:57.449Z,10.50
2019-03-08T11:11:44.733Z,10.50
2019-03-08T11:14:25.210Z,10.40
2019-03-08T11:17:02.912Z,10.50
2019-03-08T11:19:46.038Z,10.30
2019-03-08T11:22:33.254Z,10.50
2019-03-08T11:25:11.342Z,10.30
2019-03-08T11:27:58.688Z,10.20
2019-03-08T11:30:33.942Z,10.60
2019-03-08T11:33:21.313Z,10.10
2019-03-08T11:36:10.966Z,10.30
2019-03-08T11:38:52.350Z,10.50
2019-03-08T11:41:33.623Z,10.70
2019-03-08T11:44:26.964Z,10.80
2019-03-08T11:50:38.099Z,10.10
2019-03-08T11:53:25.223Z,10.90
2019-03-08T11:56:11.058Z,10.60
2019-03-08T11:59:09.699Z,10.90
2019-03-08T12:01:55.862Z,10.90
2019-03-08T12:04:59.488Z,11.10
2019-03-08T12:07:35.878Z,11.10
2019-03-08T12:10:23.085Z,10.80
2019-03-08T12:13:13.202Z,11.10
2019-03-08T12:16:07.410Z,11.10
2019-03-08T12:18:40.235Z,11.00
2019-03-08T12:21:23.723Z,11.10
2019-03-08T12:24:06.655Z,11.00
2019-03-08T12:26:42.354Z,10.80
2019-03-08T12:29:28.338Z,11.00
2019-03-08T12:32:18.494Z,11.00
2019-03-08T12:35:05.932Z,11.20
2019-03-08T12:37:55.774Z,10.90
2019-03-08T12:40:45.298Z,11.10
2019-03-08T12:43:41.217Z,11.00
2019-03-08T12:46:28.651Z,11.50
2019-03-08T12:49:06.018Z,10.90
2019-03-08T12:51:53.520Z,11.30
2019-03-08T12:54:39.248Z,11.40
2019-03-08T12:57:30.072Z,11.90
2019-03-08T13:00:21.646Z,12.00
2019-03-08T13:03:00.458Z,11.70
2019-03-08T13:05:42.966Z,12.10
2019-03-08T13:08:42.202Z,11.70
2019-03-08T13:11:10.421Z,11.70
2019-03-08T13:13:38.463Z,11.60
2019-03-08T13:16:07.310Z,11.70
2019-03-08T13:18:35.196Z,11.80
2019-03-08T13:21:06.022Z,11.80
2019-03-08T13:23:34.495Z,11.70
2019-03-08T13:26:02.910Z,11.70
2019-03-08T13:28:30.510Z,11.70
2019-03-08T13:30:58.711Z,11.80
2019-03-08T13:33:27.710Z,11.80
2019-03-08T13:35:55.650Z,11.90
2019-03-08T13:38:25.042Z,12.10
2019-03-08T13:40:52.890Z,12.00
2019-03-08T13:43:21.818Z,12.00
2019-03-08T13:45:50.462Z,11.90
2019-03-08T13:48:18.400Z,11.80
2019-03-08T13:50:46.836Z,11.60
2019-03-08T13:53:15.835Z,11.80
2019-03-08T13:55:44.411Z,11.50
2019-03-08T13:58:12.697Z,11.60
2019-03-08T14:00:40.780Z,11.30
2019-03-08T14:03:10.480Z,11.40
2019-03-08T14:05:37.848Z,11.40
2019-03-08T14:08:07.402Z,11.20
2019-03-08T14:10:37.008Z,11.10
2019-03-08T14:13:05.454Z,10.90
2019-03-08T14:15:46.850Z,11.10
2019-03-08T14:18:17.225Z,11.20
2019-03-08T14:20:47.859Z,11.20
2019-03-08T14:23:17.874Z,11.00
2019-03-08T14:25:45.718Z,11.10
2019-03-08T14:28:15.188Z,11.10
2019-03-08T14:31:01.581Z,10.90
2019-03-08T14:33:29.828Z,11.10
2019-03-08T14:35:57.442Z,11.00
2019-03-08T14:38:36.126Z,11.10
2019-03-08T14:41:30.651Z,11.00
2019-03-08T14:44:15.523Z,11.10
2019-03-08T14:46:53.026Z,11.40
2019-03-08T14:49:22.878Z,11.30
2019-03-08T14:51:51.786Z,10.60
2019-03-08T14:54:19.375Z,11.40
2019-03-08T14:56:48.010Z,11.10
2019-03-08T14:59:18.018Z,11.00
2019-03-08T15:01:45.947Z,11.30
2019-03-08T15:04:15.321Z,11.70
2019-03-08T15:06:43.566Z,11.80
2019-03-08T15:09:12.069Z,12.00
2019-03-08T15:11:40.194Z,11.80
2019-03-08T15:14:08.410Z,12.50
2019-03-08T15:16:39.126Z,12.30
2019-03-08T15:19:05.391Z,12.20
2019-03-08T15:21:36.953Z,12.50
2019-03-08T15:24:02.759Z,12.20
2019-03-08T15:26:31.363Z,12.30
2019-03-08T15:28:59.220Z,12.00
2019-03-08T15:31:27.470Z,12.40
2019-03-08T15:33:55.026Z,12.10
2019-03-08T15:36:23.785Z,12.10
2019-03-08T15:38:58.239Z,12.00
2019-03-08T15:41:24.990Z,12.20
2019-03-08T15:43:52.754Z,12.00
2019-03-08T15:46:22.477Z,12.20
2019-03-08T15:48:53.176Z,12.30
2019-03-08T15:51:20.845Z,12.20
2019-03-08T15:53:50.678Z,12.40
2019-03-08T15:56:20.498Z,12.40
2019-03-08T15:58:48.015Z,12.50
2019-03-08T16:01:15.996Z,12.00
2019-03-08T16:03:43.830Z,12.20
2019-03-08T16:06:11.450Z,12.10
2019-03-08T16:08:39.696Z,12.20
2019-03-08T16:11:08.282Z,12.10
2019-03-08T16:13:36.509Z,12.00
2019-03-08T16:16:04.072Z,11.90
2019-03-08T16:18:32.028Z,12.00
2019-03-08T16:21:00.793Z,12.00
2019-03-08T16:23:29.331Z,11.90
2019-03-08T16:25:57.793Z,12.10
2019-03-08T16:28:25.683Z,11.70
2019-03-08T16:31:00.279Z,11.80
2019-03-08T16:33:36.193Z,11.90
2019-03-08T16:36:26.169Z,12.00
2019-03-08T16:39:11.723Z,11.90
2019-03-08T16:42:04.910Z,11.90
2019-03-08T16:44:41.634Z,11.60
2019-03-08T16:47:21.472Z,11.90
2019-03-08T16:50:11.046Z,11.60
2019-03-08T16:52:51.341Z,11.70
2019-03-08T16:55:37.362Z,11.60
2019-03-08T16:58:22.807Z,11.60
2019-03-08T17:01:15.480Z,11.40
2019-03-08T17:04:01.222Z,11.40
2019-03-08T17:06:36.326Z,11.30
2019-03-08T17:09:15.214Z,11.30
2019-03-08T17:11:52.606Z,11.20
2019-03-08T17:14:29.334Z,10.90
2019-03-08T17:17:26.133Z,11.00
2019-03-08T17:20:11.406Z,11.00
2019-03-08T17:23:04.162Z,10.90
2019-03-08T17:26:09.333Z,11.20
2019-03-08T17:28:43.225Z,10.90
2019-03-08T17:31:24.007Z,10.90
2019-03-08T17:34:26.151Z,10.50
2019-03-08T17:37:12.492Z,10.60
2019-03-08T17:39:53.754Z,10.70
2019-03-08T17:42:40.852Z,10.70
2019-03-08T17:45:17.550Z,10.10
2019-03-08T17:48:04.922Z,10.70
2019-03-08T17:50:40.217Z,10.80
2019-03-08T17:53:29.907Z,10.50
2019-03-08T17:56:15.702Z,10.60
2019-03-08T17:59:03.367Z,10.80
2019-03-08T18:02:10.354Z,10.80
2019-03-08T18:04:46.768Z,10.40
2019-03-08T18:07:33.908Z,10.50
2019-03-08T18:10:19.790Z,10.70
2019-03-08T18:13:09.756Z,10.70
2019-03-08T18:15:56.837Z,10.40
2019-03-08T18:18:44.515Z,10.80
2019-03-08T18:21:37.801Z,10.80
2019-03-08T18:24:23.658Z,10.90
2019-03-08T18:27:19.430Z,11.00
2019-03-08T18:30:02.268Z,11.00
2019-03-08T18:32:46.640Z,10.70
2019-03-08T18:35:49.523Z,10.70
2019-03-08T18:38:39.874Z,11.00
2019-03-08T18:41:30.204Z,10.70
2019-03-08T18:44:20.364Z,10.60
2019-03-08T18:47:13.731Z,10.60
2019-03-08T18:50:00.759Z,10.40
2019-03-08T18:52:51.204Z,10.30
2019-03-08T18:55:40.959Z,10.20
2019-03-08T18:58:28.330Z,10.10
2019-03-08T19:01:16.566Z,10.30
2019-03-08T19:04:19.146Z,10.00
2019-03-08T19:06:54.542Z,10.10
2019-03-08T19:09:40.470Z,10.00
2019-03-08T19:12:33.827Z,10.20
2019-03-08T19:15:23.049Z,9.90
2019-03-08T19:18:06.778Z,10.20
2019-03-08T19:20:51.223Z,10.10
2019-03-08T19:23:36.999Z,10.10
2019-03-08T19:26:24.643Z,9.70
2019-03-08T19:29:08.639Z,9.80
2019-03-08T19:31:45.206Z,9.90
2019-03-08T19:34:32.531Z,10.00
2019-03-08T19:37:37.532Z,9.90
2019-03-08T19:40:28.048Z,9.60
2019-03-08T19:43:23.959Z,9.90
2019-03-08T19:46:11.300Z,10.00
2019-03-08T19:48:53.845Z,9.50
2019-03-08T19:51:41.430Z,9.60
2019-03-08T19:54:28.566Z,9.50
2019-03-08T19:57:26.406Z,9.70
2019-03-08T20:00:22.032Z,9.80
2019-03-08T20:03:06.402Z,9.70
2019-03-08T20:05:48.086Z,9.90
2019-03-08T20:08:35.465Z,9.40
2019-03-08T20:11:37.249Z,9.70
2019-03-08T20:14:21.256Z,9.70
2019-03-08T20:17:12.891Z,9.60
2019-03-08T20:20:06.536Z,9.70
2019-03-08T20:22:58.635Z,9.40
2019-03-08T20:25:36.574Z,9.50
2019-03-08T20:28:11.105Z,9.80
2019-03-08T20:30:49.697Z,9.70
2019-03-08T20:33:49.027Z,9.70
2019-03-08T20:36:41.828Z,9.50
2019-03-08T20:39:18.064Z,9.50
2019-03-08T20:42:08.091Z,9.60
2019-03-08T20:44:40.035Z,9.40
2019-03-08T20:47:11.081Z,9.20
2019-03-08T20:49:39.034Z,9.70
2019-03-08T20:52:06.770Z,9.40
2019-03-08T20:54:34.874Z,9.50
2019-03-08T20:57:02.746Z,9.60
2019-03-08T20:59:30.411Z,9.30
2019-03-08T21:01:58.590Z,9.40
2019-03-08T21:04:26.340Z,9.20
2019-03-08T21:06:53.934Z,9.30
2019-03-08T21:09:21.747Z,9.30
2019-03-08T21:11:49.335Z,9.50
2019-03-08T21:14:16.867Z,9.40
2019-03-08T21:16:44.782Z,9.40
2019-03-08T21:19:12.537Z,9.50
2019-03-08T21:21:40.138Z,9.30
2019-03-08T21:24:08.300Z,9.10
2019-03-08T21:26:35.902Z,9.10
2019-03-08T21:29:03.582Z,9.20
2019-03-08T21:31:31.551Z,9.40
2019-03-08T21:34:00.039Z,9.10
2019-03-08T21:36:28.277Z,9.00
2019-03-08T21:38:56.144Z,9.10
2019-03-08T21:41:23.880Z,9.00
2019-03-08T21:43:51.543Z,8.90
2019-03-08T21:46:19.132Z,8.90
2019-03-08T21:48:47.312Z,8.90
2019-03-08T21:51:16.695Z,9.00
2019-03-08T21:53:44.983Z,9.10
2019-03-08T21:56:14.082Z,8.80
2019-03-08T21:58:44.991Z,9.20
2019-03-08T22:01:13.299Z,9.10
2019-03-08T22:03:42.535Z,8.90
2019-03-08T22:06:10.518Z,8.70
2019-03-08T22:08:43.743Z,9.00
2019-03-08T22:11:16.268Z,8.80
2019-03-08T22:13:44.202Z,8.90
2019-03-08T22:16:12.106Z,8.80
2019-03-08T22:18:39.844Z,8.90
2019-03-08T22:21:07.765Z,9.00
2019-03-08T22:23:35.437Z,9.00
2019-03-08T22:26:03.081Z,8.80
2019-03-08T22:28:31.224Z,8.80
2019-03-08T22:30:58.853Z,8.30
2019-03-08T22:33:26.443Z,8.80
2019-03-08T22:35:54.129Z,8.80
2019-03-08T22:38:21.691Z,8.80
2019-03-08T22:40:49.178Z,8.60
2019-03-08T22:43:16.989Z,8.60
2019-03-08T22:45:45.189Z,8.70
2019-03-08T22:48:13.024Z,8.80
2019-03-08T22:50:41.239Z,8.70
2019-03-08T22:53:09.130Z,8.50
2019-03-08T22:55:37.006Z,8.60
2019-03-08T22:58:04.606Z,8.80
2019-03-08T23:00:58.783Z,8.70
2019-03-08T23:03:26.646Z,8.80
2019-03-08T23:05:54.503Z,8.80
2019-03-08T23:08:22.198Z,8.50
2019-03-08T23:10:49.987Z,8.70
2019-03-08T23:13:17.891Z,8.80
2019-03-08T23:15:45.491Z,8.60
2019-03-08T23:18:13.691Z,8.70
2019-03-08T23:20:41.668Z,8.50
2019-03-08T23:23:09.282Z,8.50
2019-03-08T23:25:37.549Z,8.60
2019-03-08T23:28:25.366Z,8.60
2019-03-08T23:30:55.634Z,8.70
2019-03-08T23:33:24.045Z,8.70
2019-03-08T23:35:51.620Z,8.50
2019-03-08T23:38:19.187Z,8.80
2019-03-08T23:40:46.943Z,8.60
2019-03-08T23:43:15.513Z,8.50
2019-03-08T23:45:43.050Z,8.80
2019-03-08T23:48:10.924Z,8.50
2019-03-08T23:50:38.438Z,8.50
2019-03-08T23:53:06.039Z,8.70
2019-03-08T23:55:34.101Z,8.60
2019-03-08T23:58:01.732Z,8.50
